createdAt,value
2019-04-11T00:00:59.570Z,0.00
2019-04-11T00:01:58.513Z,0.00
2019-04-11T00:02:58.410Z,0.00
2019-04-11T00:03:58.415Z,0.00
2019-04-11T00:04:58.772Z,0.00
2019-04-11T00:05:59.278Z,0.00
2019-04-11T00:06:58.370Z,0.00
2019-04-11T00:07:59.810Z,0.00
2019-04-11T00:08:58.620Z,0.00
2019-04-11T00:09:58.855Z,0.00
2019-04-11T00:10:58.333Z,0.00
2019-04-11T00:11:58.316Z,0.00
2019-04-11T00:12:59.084Z,0.00
2019-04-11T00:13:58.315Z,0.00
2019-04-11T00:14:58.285Z,0.00
2019-04-11T00:15:59.173Z,0.00
2019-04-11T00:16:58.381Z,0.00
2019-04-11T00:17:58.581Z,0.00
2019-04-11T00:18:58.867Z,0.00
2019-04-11T00:19:58.243Z,0.00
2019-04-11T00:20:58.317Z,0.00
2019-04-11T00:21:59.349Z,0.00
2019-04-11T00:22:58.205Z,0.00
2019-04-11T00:23:58.633Z,0.00
2019-04-11T00:24:58.926Z,0.00
2019-04-11T00:25:58.167Z,0.00
2019-04-11T00:26:58.163Z,0.00
2019-04-11T00:27:59.322Z,0.00
2019-04-11T00:28:58.373Z,0.00
2019-04-11T00:29:58.128Z,0.00
2019-04-11T00:30:58.803Z,0.00
2019-04-11T00:31:58.108Z,0.00
2019-04-11T00:32:58.117Z,0.00
2019-04-11T00:33:58.403Z,0.00
2019-04-11T00:34:58.120Z,0.00
2019-04-11T00:35:58.062Z,0.00
2019-04-11T00:36:58.873Z,0.00
2019-04-11T00:37:59.246Z,0.00
2019-04-11T00:38:58.074Z,0.00
2019-04-11T00:39:58.040Z,0.00
2019-04-11T00:40:58.011Z,0.00
2019-04-11T00:41:58.634Z,0.00
2019-04-11T00:42:58.933Z,0.00
2019-04-11T00:43:58.712Z,0.00
2019-04-11T00:44:59.018Z,0.00
2019-04-11T00:45:58.222Z,0.00
2019-04-11T00:46:58.518Z,0.00
2019-04-11T00:47:57.936Z,0.00
2019-04-11T00:48:57.927Z,0.00
2019-04-11T00:49:58.859Z,0.00
2019-04-11T00:50:57.911Z,0.00
2019-04-11T00:51:58.295Z,0.00
2019-04-11T00:52:58.058Z,0.00
2019-04-11T00:53:58.322Z,0.00
2019-04-11T00:54:57.887Z,0.00
2019-04-11T00:55:57.855Z,0.00
2019-04-11T00:56:58.814Z,0.00
2019-04-11T00:57:57.830Z,0.00
2019-04-11T00:58:58.293Z,0.00
2019-04-11T00:59:58.465Z,0.00
2019-04-11T01:00:57.825Z,0.00
2019-04-11T01:01:58.892Z,0.00
2019-04-11T01:02:57.969Z,0.00
2019-04-11T01:03:57.766Z,0.00
2019-04-11T01:04:57.774Z,0.00
2019-04-11T01:05:58.292Z,0.00
2019-04-11T01:06:58.588Z,0.00
2019-04-11T01:07:57.787Z,0.00
2019-04-11T01:08:57.831Z,0.00
2019-04-11T01:09:58.873Z,0.00
2019-04-11T01:10:57.698Z,0.00
2019-04-11T01:11:58.457Z,0.00
2019-04-11T01:12:58.648Z,0.00
2019-04-11T01:13:57.666Z,0.00
2019-04-11T01:14:57.671Z,0.00
2019-04-11T01:15:57.666Z,0.00
2019-04-11T01:16:57.628Z,0.00
2019-04-11T01:17:58.005Z,0.00
2019-04-11T01:18:58.300Z,0.00
2019-04-11T01:19:57.621Z,0.00
2019-04-11T01:20:57.712Z,0.00
2019-04-11T01:21:59.219Z,0.00
2019-04-11T01:22:58.459Z,0.00
2019-04-11T01:23:57.581Z,0.00
2019-04-11T01:24:57.851Z,0.00
2019-04-11T01:25:57.532Z,0.00
2019-04-11T01:26:57.522Z,0.00
2019-04-11T01:27:58.483Z,0.00
2019-04-11T01:28:58.684Z,0.00
2019-04-11T01:29:57.847Z,0.00
2019-04-11T01:30:57.655Z,0.00
2019-04-11T01:31:58.108Z,0.00
2019-04-11T01:32:57.459Z,0.00
2019-04-11T01:33:57.447Z,0.00
2019-04-11T01:34:57.444Z,0.00
2019-04-11T01:35:58.163Z,0.00
2019-04-11T01:36:57.570Z,0.00
2019-04-11T01:37:57.814Z,0.00
2019-04-11T01:38:57.412Z,0.00
2019-04-11T01:39:57.385Z,0.00
2019-04-11T01:40:58.225Z,0.00
2019-04-11T01:41:58.571Z,0.00
2019-04-11T01:42:57.642Z,0.00
2019-04-11T01:44:02.199Z,0.00
2019-04-11T01:44:58.342Z,0.00
2019-04-11T01:45:57.982Z,0.00
2019-04-11T01:46:58.317Z,0.00
2019-04-11T01:47:57.466Z,0.00
2019-04-11T01:48:57.678Z,0.00
2019-04-11T01:49:57.280Z,0.00
2019-04-11T01:50:57.316Z,0.00
2019-04-11T01:51:58.176Z,0.00
2019-04-11T01:52:58.367Z,0.00
2019-04-11T01:53:57.450Z,0.00
2019-04-11T01:54:57.228Z,0.00
2019-04-11T01:55:57.260Z,0.00
2019-04-11T01:56:58.006Z,0.00
2019-04-11T01:57:58.227Z,0.00
2019-04-11T01:58:57.357Z,0.00
2019-04-11T01:59:57.186Z,0.00
2019-04-11T02:00:57.200Z,0.00
2019-04-11T02:01:57.151Z,0.00
2019-04-11T02:02:57.142Z,0.00
2019-04-11T02:03:57.345Z,0.00
2019-04-11T02:04:57.125Z,0.00
2019-04-11T02:05:57.147Z,0.00
2019-04-11T02:06:58.343Z,0.00
2019-04-11T02:07:57.090Z,0.00
2019-04-11T02:08:57.755Z,0.00
2019-04-11T02:09:57.067Z,0.00
2019-04-11T02:10:57.128Z,0.00
2019-04-11T02:11:58.186Z,0.00
2019-04-11T02:12:57.036Z,0.00
2019-04-11T02:14:09.867Z,0.00
2019-04-11T02:14:58.010Z,0.00
2019-04-11T02:15:58.400Z,0.00
2019-04-11T02:16:57.140Z,0.00
2019-04-11T02:17:57.260Z,0.00
2019-04-11T02:18:56.971Z,0.00
2019-04-11T02:19:56.959Z,0.00
2019-04-11T02:20:57.655Z,0.00
2019-04-11T02:21:57.937Z,0.00
2019-04-11T02:22:56.992Z,0.00
2019-04-11T02:23:56.918Z,0.00
2019-04-11T02:24:57.934Z,0.00
2019-04-11T02:25:56.894Z,0.00
2019-04-11T02:26:56.913Z,0.00
2019-04-11T02:27:58.051Z,0.00
2019-04-11T02:28:57.173Z,0.00
2019-04-11T02:29:56.853Z,0.00
2019-04-11T02:30:56.872Z,0.00
2019-04-11T02:31:57.388Z,0.00
2019-04-11T02:32:58.294Z,0.00
2019-04-11T02:33:57.288Z,0.00
2019-04-11T02:34:59.171Z,0.00
2019-04-11T02:35:57.277Z,0.00
2019-04-11T02:36:58.581Z,0.00
2019-04-11T02:37:57.492Z,0.00
2019-04-11T02:39:01.368Z,0.00
2019-04-11T02:39:58.392Z,0.00
2019-04-11T02:40:57.830Z,0.00
2019-04-11T02:41:57.033Z,0.00
2019-04-11T02:42:57.475Z,0.00
2019-04-11T02:43:57.535Z,0.00
2019-04-11T02:45:13.094Z,0.00
2019-04-11T02:46:10.092Z,0.00
2019-04-11T02:47:05.596Z,0.00
2019-04-11T02:47:59.224Z,0.00
2019-04-11T02:48:58.724Z,0.00
2019-04-11T02:49:57.257Z,0.00
2019-04-11T02:50:58.337Z,0.00
2019-04-11T02:51:56.623Z,0.00
2019-04-11T02:52:56.834Z,0.00
2019-04-11T02:53:58.472Z,0.00
2019-04-11T02:54:56.954Z,0.00
2019-04-11T02:55:58.174Z,0.00
2019-04-11T02:56:57.668Z,0.00
2019-04-11T02:58:57.728Z,0.00
2019-04-11T02:59:56.576Z,0.00
2019-04-11T03:00:59.417Z,0.00
2019-04-11T03:01:58.145Z,0.00
2019-04-11T03:02:56.955Z,0.00
2019-04-11T03:03:58.952Z,0.00
2019-04-11T03:04:56.698Z,0.00
2019-04-11T03:05:58.164Z,0.00
2019-04-11T03:06:57.399Z,0.00
2019-04-11T03:07:57.975Z,0.00
2019-04-11T03:08:57.619Z,0.00
2019-04-11T03:09:56.776Z,0.00
2019-04-11T03:10:57.588Z,0.00
2019-04-11T03:11:56.857Z,0.00
2019-04-11T03:12:56.881Z,0.00
2019-04-11T03:13:58.152Z,0.00
2019-04-11T03:15:12.702Z,0.00
2019-04-11T03:16:12.218Z,0.00
2019-04-11T03:17:09.781Z,0.00
2019-04-11T03:18:04.235Z,0.00
2019-04-11T03:19:13.326Z,0.00
2019-04-11T03:20:09.408Z,0.00
2019-04-11T03:21:02.795Z,0.00
2019-04-11T03:21:58.989Z,0.00
2019-04-11T03:23:00.102Z,0.00
2019-04-11T03:23:58.838Z,0.00
2019-04-11T03:24:58.332Z,0.00
2019-04-11T03:25:56.715Z,0.00
2019-04-11T03:26:58.235Z,0.00
2019-04-11T03:27:57.050Z,0.00
2019-04-11T03:28:57.581Z,0.00
2019-04-11T03:29:57.916Z,0.00
2019-04-11T03:31:26.577Z,0.00
2019-04-11T03:32:49.269Z,0.00
2019-04-11T03:35:06.282Z,0.00
2019-04-11T03:35:51.862Z,0.00
2019-04-11T03:36:50.919Z,0.00
2019-04-11T03:37:23.647Z,0.00
2019-04-11T03:38:19.504Z,0.00
2019-04-11T03:39:15.342Z,0.00
2019-04-11T03:40:18.710Z,0.00
2019-04-11T03:41:16.273Z,0.00
2019-04-11T03:42:15.676Z,0.00
2019-04-11T03:43:11.166Z,0.00
2019-04-11T03:44:04.264Z,0.00
2019-04-11T03:45:20.478Z,0.00
2019-04-11T03:46:16.318Z,0.00
2019-04-11T03:47:11.200Z,0.00
2019-04-11T03:48:10.872Z,0.00
2019-04-11T03:49:09.331Z,4.00
2019-04-11T03:50:05.056Z,0.00
2019-04-11T03:50:57.620Z,0.00
2019-04-11T03:51:55.991Z,4.00
2019-04-11T03:52:57.854Z,4.00
2019-04-11T03:53:56.762Z,4.00
2019-04-11T03:54:56.335Z,8.00
2019-04-11T03:55:56.224Z,4.00
2019-04-11T03:56:57.225Z,4.00
2019-04-11T03:57:58.219Z,8.00
2019-04-11T03:58:57.637Z,8.00
2019-04-11T03:59:56.554Z,12.00
2019-04-11T04:00:59.447Z,12.00
2019-04-11T04:01:59.107Z,12.00
2019-04-11T04:02:57.372Z,16.00
2019-04-11T04:03:55.911Z,16.00
2019-04-11T04:04:57.054Z,20.00
2019-04-11T04:05:57.301Z,24.00
2019-04-11T04:06:57.578Z,28.00
2019-04-11T04:07:57.729Z,32.00
2019-04-11T04:08:55.812Z,36.00
2019-04-11T04:09:55.805Z,44.00
2019-04-11T04:10:56.361Z,48.00
2019-04-11T04:11:56.959Z,56.00
2019-04-11T04:12:56.556Z,64.00
2019-04-11T04:13:56.204Z,72.00
2019-04-11T04:14:55.755Z,80.00
2019-04-11T04:16:06.290Z,88.00
2019-04-11T04:17:00.944Z,100.00
2019-04-11T04:17:57.330Z,112.00
2019-04-11T04:18:56.527Z,120.00
2019-04-11T04:19:56.590Z,132.00
2019-04-11T04:20:57.482Z,152.00
2019-04-11T04:21:57.288Z,164.00
2019-04-11T04:22:56.705Z,180.00
2019-04-11T04:23:57.862Z,188.00
2019-04-11T04:24:56.121Z,204.00
2019-04-11T04:25:55.626Z,220.00
2019-04-11T04:26:57.010Z,236.00
2019-04-11T04:27:56.876Z,256.00
2019-04-11T04:28:55.661Z,280.00
2019-04-11T04:29:58.470Z,308.00
2019-04-11T04:30:55.576Z,332.00
2019-04-11T04:31:57.160Z,356.00
2019-04-11T04:32:56.807Z,384.00
2019-04-11T04:33:55.669Z,404.00
2019-04-11T04:34:56.362Z,412.00
2019-04-11T04:35:56.037Z,428.00
2019-04-11T04:36:55.768Z,452.00
2019-04-11T04:37:56.998Z,488.00
2019-04-11T04:38:57.096Z,520.00
2019-04-11T04:40:13.222Z,552.00
2019-04-11T04:41:11.239Z,592.00
2019-04-11T04:42:03.766Z,636.00
2019-04-11T04:42:58.432Z,656.00
2019-04-11T04:43:56.955Z,680.00
2019-04-11T04:44:55.966Z,700.00
2019-04-11T04:46:12.105Z,736.00
2019-04-11T04:47:10.531Z,784.00
2019-04-11T04:48:02.935Z,812.00
2019-04-11T04:48:56.395Z,820.00
2019-04-11T04:49:56.925Z,828.00
2019-04-11T04:50:57.673Z,848.00
2019-04-11T04:51:56.051Z,880.00
2019-04-11T04:52:55.972Z,908.00
2019-04-11T04:53:55.806Z,928.00
2019-04-11T04:54:57.358Z,964.00
2019-04-11T04:55:55.308Z,1012.00
2019-04-11T04:56:55.308Z,1048.00
2019-04-11T04:57:55.581Z,1080.00
2019-04-11T04:58:55.979Z,1120.00
2019-04-11T04:59:55.612Z,1148.00
2019-04-11T05:00:56.764Z,1160.00
2019-04-11T05:01:55.764Z,1164.00
2019-04-11T05:02:56.899Z,1172.00
2019-04-11T05:03:56.410Z,1192.00
2019-04-11T05:04:56.570Z,1204.00
2019-04-11T05:05:55.493Z,1252.00
2019-04-11T05:06:55.307Z,1296.00
2019-04-11T05:07:56.318Z,1304.00
2019-04-11T05:08:56.091Z,1312.00
2019-04-11T05:09:56.507Z,1340.00
2019-04-11T05:10:55.786Z,1380.00
2019-04-11T05:11:55.277Z,1408.00
2019-04-11T05:12:55.142Z,1448.00
2019-04-11T05:13:56.477Z,1504.00
2019-04-11T05:14:56.076Z,1544.00
2019-04-11T05:16:07.192Z,1540.00
2019-04-11T05:16:56.083Z,1508.00
2019-04-11T05:17:55.276Z,1492.00
2019-04-11T05:18:55.068Z,1512.00
2019-04-11T05:19:55.052Z,1536.00
2019-04-11T05:20:55.064Z,1552.00
2019-04-11T05:21:55.030Z,1552.00
2019-04-11T05:22:55.866Z,1568.00
2019-04-11T05:23:55.606Z,1596.00
2019-04-11T05:24:56.041Z,1624.00
2019-04-11T05:25:55.138Z,1636.00
2019-04-11T05:26:55.838Z,1648.00
2019-04-11T05:27:55.924Z,1664.00
2019-04-11T05:28:55.210Z,1680.00
2019-04-11T05:29:54.941Z,1696.00
2019-04-11T05:30:55.323Z,1712.00
2019-04-11T05:31:54.923Z,1736.00
2019-04-11T05:32:55.712Z,1756.00
2019-04-11T05:33:56.057Z,1772.00
2019-04-11T05:34:54.888Z,1792.00
2019-04-11T05:35:54.904Z,1812.00
2019-04-11T05:36:55.450Z,1828.00
2019-04-11T05:37:55.739Z,1864.00
2019-04-11T05:38:54.855Z,1916.00
2019-04-11T05:39:54.850Z,1972.00
2019-04-11T05:40:54.878Z,2036.00
2019-04-11T05:41:54.820Z,2076.00
2019-04-11T05:42:55.732Z,2104.00
2019-04-11T05:43:55.704Z,2164.00
2019-04-11T05:44:54.878Z,2240.00
2019-04-11T05:45:56.448Z,2280.00
2019-04-11T05:46:57.623Z,2268.00
2019-04-11T05:47:57.949Z,2296.00
2019-04-11T05:48:57.933Z,2384.00
2019-04-11T05:49:56.780Z,2508.00
2019-04-11T05:50:54.723Z,2696.00
2019-04-11T05:51:58.163Z,2764.00
2019-04-11T05:52:54.716Z,2656.00
2019-04-11T05:53:55.837Z,2640.00
2019-04-11T05:54:54.698Z,2600.00
2019-04-11T05:55:55.270Z,2496.00
2019-04-11T05:56:57.694Z,2440.00
2019-04-11T05:57:54.657Z,2392.00
2019-04-11T05:58:55.615Z,2344.00
2019-04-11T05:59:55.185Z,2368.00
2019-04-11T06:00:55.835Z,2460.00
2019-04-11T06:01:54.982Z,2452.00
2019-04-11T06:02:54.590Z,2360.00
2019-04-11T06:03:55.478Z,2356.00
2019-04-11T06:04:56.111Z,2348.00
2019-04-11T06:05:56.472Z,2336.00
2019-04-11T06:06:57.243Z,2336.00
2019-04-11T06:07:57.275Z,2340.00
2019-04-11T06:08:58.528Z,2352.00
2019-04-11T06:09:56.522Z,2364.00
2019-04-11T06:10:54.758Z,2372.00
2019-04-11T06:11:57.220Z,2372.00
2019-04-11T06:12:54.734Z,2384.00
2019-04-11T06:13:54.480Z,2396.00
2019-04-11T06:14:55.331Z,2400.00
2019-04-11T06:15:56.678Z,2408.00
2019-04-11T06:16:57.099Z,2412.00
2019-04-11T06:17:54.594Z,2416.00
2019-04-11T06:18:54.430Z,2424.00
2019-04-11T06:19:55.606Z,2424.00
2019-04-11T06:20:55.604Z,2436.00
2019-04-11T06:21:54.393Z,2448.00
2019-04-11T06:22:54.415Z,2460.00
2019-04-11T06:23:54.373Z,2472.00
2019-04-11T06:24:54.392Z,2476.00
2019-04-11T06:25:55.501Z,2480.00
2019-04-11T06:26:54.733Z,2492.00
2019-04-11T06:27:54.357Z,2504.00
2019-04-11T06:28:55.835Z,2512.00
2019-04-11T06:29:54.917Z,2512.00
2019-04-11T06:30:54.794Z,2516.00
2019-04-11T06:31:55.069Z,2524.00
2019-04-11T06:32:54.454Z,2536.00
2019-04-11T06:33:54.266Z,2548.00
2019-04-11T06:34:54.258Z,2552.00
2019-04-11T06:35:54.547Z,2560.00
2019-04-11T06:36:55.210Z,2564.00
2019-04-11T06:37:54.320Z,2560.00
2019-04-11T06:38:54.707Z,2572.00
2019-04-11T06:39:56.686Z,2596.00
2019-04-11T06:40:54.503Z,2608.00
2019-04-11T06:41:54.890Z,2616.00
2019-04-11T06:42:54.179Z,2620.00
2019-04-11T06:43:54.247Z,2628.00
2019-04-11T06:44:54.395Z,2636.00
2019-04-11T06:45:54.405Z,2644.00
2019-04-11T06:46:56.206Z,2656.00
2019-04-11T06:47:54.119Z,2660.00
2019-04-11T06:48:54.125Z,2664.00
2019-04-11T06:49:55.087Z,2672.00
2019-04-11T06:50:54.085Z,2688.00
2019-04-11T06:51:55.085Z,2696.00
2019-04-11T06:52:54.067Z,2704.00
2019-04-11T06:53:54.633Z,2704.00
2019-04-11T06:54:54.055Z,2712.00
2019-04-11T06:55:54.914Z,2728.00
2019-04-11T06:56:54.027Z,2740.00
2019-04-11T06:57:54.305Z,2744.00
2019-04-11T06:58:55.191Z,2732.00
2019-04-11T06:59:54.006Z,2740.00
2019-04-11T07:00:55.773Z,2756.00
2019-04-11T07:01:55.249Z,2760.00
2019-04-11T07:02:55.103Z,2760.00
2019-04-11T07:03:53.958Z,2768.00
2019-04-11T07:04:53.989Z,2764.00
2019-04-11T07:05:55.071Z,2776.00
2019-04-11T07:06:53.969Z,2728.00
2019-04-11T07:07:53.992Z,2780.00
2019-04-11T07:08:54.685Z,2800.00
2019-04-11T07:09:55.475Z,2796.00
2019-04-11T07:10:53.888Z,2796.00
2019-04-11T07:11:53.867Z,2812.00
2019-04-11T07:12:55.534Z,2816.00
2019-04-11T07:13:53.869Z,2828.00
2019-04-11T07:14:55.047Z,2844.00
2019-04-11T07:15:54.834Z,2832.00
2019-04-11T07:17:01.393Z,2836.00
2019-04-11T07:17:54.802Z,2836.00
2019-04-11T07:18:54.830Z,2852.00
2019-04-11T07:19:53.785Z,2908.00
2019-04-11T07:20:54.202Z,2776.00
2019-04-11T07:21:53.762Z,2816.00
2019-04-11T07:22:55.235Z,2880.00
2019-04-11T07:23:53.789Z,2900.00
2019-04-11T07:24:53.771Z,2940.00
2019-04-11T07:25:53.984Z,2936.00
2019-04-11T07:26:54.339Z,2956.00
2019-04-11T07:27:53.837Z,2912.00
2019-04-11T07:28:54.279Z,3172.00
2019-04-11T07:29:54.300Z,2952.00
2019-04-11T07:30:53.930Z,2940.00
2019-04-11T07:31:54.798Z,2944.00
2019-04-11T07:32:54.987Z,2936.00
2019-04-11T07:33:54.028Z,2920.00
2019-04-11T07:34:54.409Z,2936.00
2019-04-11T07:35:53.638Z,2960.00
2019-04-11T07:36:53.683Z,2980.00
2019-04-11T07:37:53.715Z,3096.00
2019-04-11T07:38:54.447Z,2972.00
2019-04-11T07:39:53.883Z,2984.00
2019-04-11T07:40:54.632Z,2980.00
2019-04-11T07:41:53.579Z,2996.00
2019-04-11T07:42:53.592Z,3000.00
2019-04-11T07:43:54.249Z,3060.00
2019-04-11T07:44:53.526Z,3048.00
2019-04-11T07:45:53.707Z,3036.00
2019-04-11T07:46:53.747Z,3180.00
2019-04-11T07:47:54.789Z,3300.00
2019-04-11T07:48:54.751Z,3128.00
2019-04-11T07:49:55.312Z,3036.00
2019-04-11T07:50:55.216Z,3016.00
2019-04-11T07:51:53.447Z,3032.00
2019-04-11T07:52:53.751Z,3196.00
2019-04-11T07:53:54.579Z,3084.00
2019-04-11T07:54:53.691Z,3504.00
2019-04-11T07:55:53.445Z,3744.00
2019-04-11T07:56:53.542Z,4100.00
2019-04-11T07:57:54.673Z,3812.00
2019-04-11T07:58:54.316Z,3932.00
2019-04-11T07:59:53.440Z,4156.00
2019-04-11T08:00:54.420Z,3752.00
2019-04-11T08:01:53.374Z,4168.00
2019-04-11T08:02:53.371Z,4524.00
2019-04-11T08:03:53.630Z,4160.00
2019-04-11T08:04:53.388Z,4220.00
2019-04-11T08:05:54.364Z,4308.00
2019-04-11T08:06:54.286Z,3908.00
2019-04-11T08:07:53.288Z,4120.00
2019-04-11T08:08:53.293Z,3988.00
2019-04-11T08:09:53.266Z,3764.00
2019-04-11T08:10:53.241Z,3552.00
2019-04-11T08:11:53.229Z,3476.00
2019-04-11T08:12:54.076Z,3056.00
2019-04-11T08:13:55.129Z,3944.00
2019-04-11T08:14:53.214Z,4164.00
2019-04-11T08:15:53.732Z,3132.00
2019-04-11T08:16:53.316Z,3800.00
2019-04-11T08:17:54.258Z,4928.00
2019-04-11T08:18:53.384Z,4780.00
2019-04-11T08:19:53.304Z,4352.00
2019-04-11T08:20:53.328Z,4048.00
2019-04-11T08:21:53.142Z,3808.00
2019-04-11T08:22:53.123Z,3988.00
2019-04-11T08:23:54.162Z,4964.00
2019-04-11T08:24:53.250Z,4104.00
2019-04-11T08:25:53.684Z,5072.00
2019-04-11T08:26:53.082Z,4852.00
2019-04-11T08:27:59.978Z,4308.00
2019-04-11T08:29:05.343Z,5248.00
2019-04-11T08:29:54.759Z,6732.00
2019-04-11T08:30:53.057Z,6544.00
2019-04-11T08:31:54.793Z,7136.00
2019-04-11T08:32:53.892Z,6868.00
2019-04-11T08:33:53.144Z,6112.00
2019-04-11T08:34:53.460Z,6708.00
2019-04-11T08:35:54.033Z,6780.00
2019-04-11T08:36:52.968Z,6868.00
2019-04-11T08:37:53.976Z,7272.00
2019-04-11T08:38:53.085Z,7800.00
2019-04-11T08:39:53.392Z,7636.00
2019-04-11T08:40:53.334Z,7436.00
2019-04-11T08:41:52.918Z,7180.00
2019-04-11T08:42:52.930Z,6928.00
2019-04-11T08:43:53.202Z,7296.00
2019-04-11T08:44:52.919Z,6812.00
2019-04-11T08:45:53.938Z,6156.00
2019-04-11T08:46:53.925Z,5912.00
2019-04-11T08:47:56.952Z,5848.00
2019-04-11T08:48:54.042Z,6204.00
2019-04-11T08:49:54.101Z,5464.00
2019-04-11T08:50:52.852Z,4824.00
2019-04-11T08:51:53.756Z,4600.00
2019-04-11T08:52:54.123Z,4368.00
2019-04-11T08:53:53.168Z,4132.00
2019-04-11T08:54:53.523Z,3920.00
2019-04-11T08:55:56.177Z,3900.00
2019-04-11T08:56:53.765Z,3964.00
2019-04-11T08:57:52.863Z,4032.00
2019-04-11T08:58:53.093Z,4164.00
2019-04-11T08:59:53.528Z,4696.00
2019-04-11T09:00:55.647Z,6148.00
2019-04-11T09:01:53.918Z,7040.00
2019-04-11T09:02:53.467Z,7764.00
2019-04-11T09:04:04.117Z,8288.00
2019-04-11T09:05:03.186Z,8736.00
2019-04-11T09:05:53.678Z,9236.00
2019-04-11T09:06:52.674Z,8964.00
2019-04-11T09:07:52.653Z,8424.00
2019-04-11T09:08:52.621Z,7988.00
2019-04-11T09:09:53.640Z,8232.00
2019-04-11T09:10:52.664Z,8584.00
2019-04-11T09:11:52.627Z,8980.00
2019-04-11T09:12:53.042Z,9768.00
2019-04-11T09:13:52.570Z,9676.00
2019-04-11T09:14:52.754Z,10436.00
2019-04-11T09:15:52.918Z,11768.00
2019-04-11T09:16:52.591Z,12324.00
2019-04-11T09:17:58.999Z,12308.00
2019-04-11T09:18:54.458Z,12300.00
2019-04-11T09:19:52.526Z,12600.00
2019-04-11T09:20:52.497Z,12180.00
2019-04-11T09:21:52.833Z,11540.00
2019-04-11T09:22:53.347Z,11392.00
2019-04-11T09:23:52.493Z,11240.00
2019-04-11T09:24:52.607Z,12328.00
2019-04-11T09:25:53.740Z,13088.00
2019-04-11T09:26:52.455Z,12380.00
2019-04-11T09:27:53.949Z,11388.00
2019-04-11T09:28:53.475Z,10772.00
2019-04-11T09:29:52.518Z,10088.00
2019-04-11T09:30:52.815Z,9156.00
2019-04-11T09:31:52.429Z,8532.00
2019-04-11T09:32:52.826Z,8292.00
2019-04-11T09:33:53.176Z,8392.00
2019-04-11T09:34:52.350Z,8548.00
2019-04-11T09:35:52.362Z,8500.00
2019-04-11T09:36:53.413Z,8228.00
2019-04-11T09:37:52.318Z,7996.00
2019-04-11T09:38:52.841Z,7832.00
2019-04-11T09:39:53.150Z,7800.00
2019-04-11T09:40:52.296Z,7856.00
2019-04-11T09:41:52.456Z,7892.00
2019-04-11T09:42:53.378Z,7784.00
2019-04-11T09:43:52.707Z,7680.00
2019-04-11T09:44:53.151Z,7804.00
2019-04-11T09:45:52.633Z,8096.00
2019-04-11T09:46:52.252Z,8612.00
2019-04-11T09:47:52.225Z,9136.00
2019-04-11T09:48:52.202Z,9448.00
2019-04-11T09:49:52.186Z,10012.00
2019-04-11T09:50:53.186Z,10420.00
2019-04-11T09:51:52.208Z,10556.00
2019-04-11T09:52:52.161Z,10916.00
2019-04-11T09:53:52.924Z,11624.00
2019-04-11T09:54:52.667Z,12040.00
2019-04-11T09:55:52.120Z,11724.00
2019-04-11T09:56:52.141Z,11344.00
2019-04-11T09:57:52.563Z,11884.00
2019-04-11T09:58:52.098Z,12568.00
2019-04-11T09:59:52.082Z,13016.00
2019-04-11T10:00:52.926Z,13816.00
2019-04-11T10:01:52.066Z,13968.00
2019-04-11T10:02:52.727Z,13508.00
2019-04-11T10:03:52.900Z,13008.00
2019-04-11T10:04:52.243Z,12608.00
2019-04-11T10:05:52.007Z,12312.00
2019-04-11T10:06:52.975Z,12232.00
2019-04-11T10:07:52.336Z,11996.00
2019-04-11T10:08:52.097Z,11132.00
2019-04-11T10:09:52.434Z,10600.00
2019-04-11T10:10:53.158Z,10600.00
2019-04-11T10:11:52.582Z,10412.00
2019-04-11T10:12:52.115Z,9988.00
2019-04-11T10:13:53.159Z,9364.00
2019-04-11T10:14:51.919Z,9024.00
2019-04-11T10:15:51.904Z,8932.00
2019-04-11T10:16:52.591Z,9096.00
2019-04-11T10:17:51.880Z,9428.00
2019-04-11T10:18:51.887Z,9664.00
2019-04-11T10:19:52.062Z,9316.00
2019-04-11T10:20:52.938Z,8572.00
2019-04-11T10:21:51.848Z,8508.00
2019-04-11T10:22:52.229Z,9136.00
2019-04-11T10:23:51.836Z,9732.00
2019-04-11T10:24:51.814Z,10356.00
2019-04-11T10:25:51.840Z,10872.00
2019-04-11T10:26:52.133Z,10984.00
2019-04-11T10:27:53.064Z,10944.00
2019-04-11T10:28:51.797Z,10888.00
2019-04-11T10:29:52.583Z,10960.00
2019-04-11T10:30:51.742Z,11252.00
2019-04-11T10:31:52.719Z,11264.00
2019-04-11T10:32:51.877Z,10960.00
2019-04-11T10:33:51.741Z,10396.00
2019-04-11T10:34:52.217Z,9712.00
2019-04-11T10:35:51.683Z,9076.00
2019-04-11T10:36:51.677Z,8708.00
2019-04-11T10:37:51.966Z,8628.00
2019-04-11T10:38:51.665Z,8828.00
2019-04-11T10:39:51.700Z,8940.00
2019-04-11T10:40:52.425Z,9148.00
2019-04-11T10:41:51.636Z,9336.00
2019-04-11T10:42:51.911Z,9608.00
2019-04-11T10:43:51.721Z,9808.00
2019-04-11T10:44:51.602Z,10052.00
2019-04-11T10:45:51.586Z,10228.00
2019-04-11T10:46:51.617Z,10508.00
2019-04-11T10:47:51.598Z,10696.00
2019-04-11T10:48:52.773Z,10824.00
2019-04-11T10:49:52.616Z,11132.00
2019-04-11T10:50:52.678Z,11724.00
2019-04-11T10:51:51.518Z,12440.00
2019-04-11T10:52:51.517Z,13000.00
2019-04-11T10:53:51.511Z,13644.00
2019-04-11T10:54:51.486Z,14160.00
2019-04-11T10:55:51.790Z,14528.00
2019-04-11T10:56:51.643Z,14792.00
2019-04-11T10:57:52.131Z,15416.00
2019-04-11T10:58:51.440Z,16136.00
2019-04-11T10:59:51.430Z,16760.00
2019-04-11T11:00:51.551Z,16960.00
2019-04-11T11:01:52.580Z,16532.00
2019-04-11T11:02:51.543Z,16232.00
2019-04-11T11:03:51.480Z,15212.00
2019-04-11T11:04:52.565Z,13992.00
2019-04-11T11:05:51.450Z,13296.00
2019-04-11T11:06:51.817Z,13288.00
2019-04-11T11:07:51.412Z,14824.00
2019-04-11T11:08:51.437Z,16048.00
2019-04-11T11:09:52.381Z,15636.00
2019-04-11T11:10:52.137Z,13444.00
2019-04-11T11:11:51.301Z,12480.00
2019-04-11T11:12:51.742Z,12408.00
2019-04-11T11:13:51.340Z,12684.00
2019-04-11T11:14:52.395Z,13300.00
2019-04-11T11:15:51.702Z,13628.00
2019-04-11T11:16:51.278Z,13744.00
2019-04-11T11:18:20.327Z,13848.00
2019-04-11T11:19:20.657Z,13528.00
2019-04-11T11:20:07.792Z,13104.00
2019-04-11T11:20:55.628Z,12148.00
2019-04-11T11:21:51.380Z,11932.00
2019-04-11T11:22:51.767Z,12516.00
2019-04-11T11:23:52.388Z,12288.00
2019-04-11T11:24:51.169Z,11524.00
2019-04-11T11:25:51.969Z,10812.00
2019-04-11T11:26:53.663Z,10572.00
2019-04-11T11:27:52.387Z,10288.00
2019-04-11T11:28:51.130Z,10228.00
2019-04-11T11:29:51.654Z,10188.00
2019-04-11T11:30:51.964Z,9836.00
2019-04-11T11:31:52.371Z,9596.00
2019-04-11T11:32:51.775Z,9260.00
2019-04-11T11:33:51.085Z,9028.00
2019-04-11T11:34:52.979Z,8852.00
2019-04-11T11:35:52.113Z,8444.00
2019-04-11T11:36:53.563Z,8028.00
2019-04-11T11:37:51.208Z,7664.00
2019-04-11T11:38:52.256Z,7440.00
2019-04-11T11:39:51.137Z,7392.00
2019-04-11T11:40:52.023Z,7460.00
2019-04-11T11:41:50.987Z,7568.00
2019-04-11T11:42:51.008Z,7820.00
2019-04-11T11:43:51.631Z,7968.00
2019-04-11T11:44:50.958Z,7880.00
2019-04-11T11:45:54.623Z,8256.00
2019-04-11T11:46:52.120Z,8592.00
2019-04-11T11:47:51.202Z,8508.00
2019-04-11T11:48:53.817Z,7892.00
2019-04-11T11:49:57.040Z,7400.00
2019-04-11T11:50:52.857Z,7208.00
2019-04-11T11:51:51.916Z,7416.00
2019-04-11T11:52:51.150Z,7480.00
2019-04-11T11:53:51.108Z,7420.00
2019-04-11T11:54:51.554Z,7428.00
2019-04-11T11:55:51.629Z,7296.00
2019-04-11T11:56:50.822Z,6812.00
2019-04-11T11:57:51.014Z,6472.00
2019-04-11T11:58:55.369Z,6260.00
2019-04-11T11:59:52.373Z,5952.00
2019-04-11T12:00:53.857Z,5996.00
2019-04-11T12:01:52.563Z,6340.00
2019-04-11T12:02:51.992Z,6804.00
2019-04-11T12:03:50.863Z,7044.00
2019-04-11T12:04:51.922Z,7292.00
2019-04-11T12:05:52.446Z,7784.00
2019-04-11T12:06:58.131Z,8172.00
2019-04-11T12:07:51.702Z,8812.00
2019-04-11T12:08:51.469Z,9396.00
2019-04-11T12:09:50.975Z,9556.00
2019-04-11T12:10:51.448Z,10000.00
2019-04-11T12:11:52.503Z,10652.00
2019-04-11T12:12:51.856Z,11424.00
2019-04-11T12:13:51.530Z,12020.00
2019-04-11T12:14:51.664Z,12244.00
2019-04-11T12:15:51.164Z,12572.00
2019-04-11T12:16:56.084Z,13092.00
2019-04-11T12:17:51.980Z,13868.00
2019-04-11T12:18:53.100Z,14756.00
2019-04-11T12:19:53.875Z,15140.00
2019-04-11T12:20:54.166Z,15244.00
2019-04-11T12:21:51.623Z,15888.00
2019-04-11T12:22:52.193Z,17472.00
2019-04-11T12:23:58.032Z,19008.00
2019-04-11T12:24:52.418Z,17920.00
2019-04-11T12:25:51.616Z,14592.00
2019-04-11T12:26:51.773Z,12384.00
2019-04-11T12:27:50.489Z,10436.00
2019-04-11T12:28:50.538Z,8520.00